sensor_id;sensor_type;location;lat;lon;timestamp;P1;durP1;ratioP1;P2;durP2;ratioP2
77991;SDS011;67180;43.534;-5.652;2023-03-31T00:02:21;55.55;;;37.38;;
77991;SDS011;67180;43.534;-5.652;2023-03-31T00:04:48;53.10;;;34.58;;
77991;SDS011;67180;43.534;-5.652;2023-03-31T00:07:30;46.17;;;30.92;;
77991;SDS011;67180;43.534;-5.652;2023-03-31T00:09:58;51.38;;;32.63;;
77991;SDS011;67180;43.534;-5.652;2023-03-31T00:12:29;42.58;;;26.98;;
77991;SDS011;67180;43.534;-5.652;2023-03-31T00:15:09;48.13;;;26.83;;
77991;SDS011;67180;43.534;-5.652;2023-03-31T00:17:41;41.78;;;26.30;;
77991;SDS011;67180;43.534;-5.652;2023-03-31T00:20:07;45.25;;;27.50;;
77991;SDS011;67180;43.534;-5.652;2023-03-31T00:22:39;40.55;;;27.40;;
77991;SDS011;67180;43.534;-5.652;2023-03-31T00:25:12;47.50;;;29.33;;
77991;SDS011;67180;43.534;-5.652;2023-03-31T00:27:43;46.10;;;28.05;;
77991;SDS011;67180;43.534;-5.652;2023-03-31T00:30:11;40.67;;;23.92;;
77991;SDS011;67180;43.534;-5.652;2023-03-31T00:32:38;42.72;;;23.60;;
77991;SDS011;67180;43.534;-5.652;2023-03-31T00:35:09;41.45;;;22.88;;
77991;SDS011;67180;43.534;-5.652;2023-03-31T00:37:41;39.25;;;23.42;;
77991;SDS011;67180;43.534;-5.652;2023-03-31T00:40:07;43.55;;;21.92;;
77991;SDS011;67180;43.534;-5.652;2023-03-31T00:42:39;38.05;;;20.60;;
77991;SDS011;67180;43.534;-5.652;2023-03-31T00:51:01;44.80;;;21.58;;
77991;SDS011;67180;43.534;-5.652;2023-03-31T00:53:30;63.97;;;21.58;;
77991;SDS011;67180;43.534;-5.652;2023-03-31T00:56:00;45.72;;;22.00;;
77991;SDS011;67180;43.534;-5.652;2023-03-31T00:58:29;47.45;;;23.33;;
77991;SDS011;67180;43.534;-5.652;2023-03-31T01:00:59;43.72;;;23.15;;
77991;SDS011;67180;43.534;-5.652;2023-03-31T01:03:26;48.10;;;23.50;;
77991;SDS011;67180;43.534;-5.652;2023-03-31T01:06:02;42.60;;;22.20;;
77991;SDS011;67180;43.534;-5.652;2023-03-31T01:08:31;42.33;;;22.63;;
77991;SDS011;67180;43.534;-5.652;2023-03-31T01:11:03;43.10;;;21.40;;
77991;SDS011;67180;43.534;-5.652;2023-03-31T01:13:33;41.50;;;20.95;;
77991;SDS011;67180;43.534;-5.652;2023-03-31T01:16:05;42.15;;;21.60;;
77991;SDS011;67180;43.534;-5.652;2023-03-31T01:18:36;44.40;;;21.42;;
77991;SDS011;67180;43.534;-5.652;2023-03-31T01:21:16;42.97;;;20.58;;
77991;SDS011;67180;43.534;-5.652;2023-03-31T01:34:56;14.80;;;4.72;;
77991;SDS011;67180;43.534;-5.652;2023-03-31T01:37:41;16.52;;;4.25;;
77991;SDS011;67180;43.534;-5.652;2023-03-31T01:40:18;12.23;;;3.30;;
77991;SDS011;67180;43.534;-5.652;2023-03-31T01:42:52;18.50;;;2.95;;
77991;SDS011;67180;43.534;-5.652;2023-03-31T01:45:36;13.82;;;2.78;;
77991;SDS011;67180;43.534;-5.652;2023-03-31T01:48:10;18.93;;;2.80;;
77991;SDS011;67180;43.534;-5.652;2023-03-31T01:51:05;15.57;;;2.60;;
77991;SDS011;67180;43.534;-5.652;2023-03-31T01:53:39;11.30;;;2.70;;
77991;SDS011;67180;43.534;-5.652;2023-03-31T01:56:20;16.98;;;3.35;;
77991;SDS011;67180;43.534;-5.652;2023-03-31T01:58:52;12.18;;;2.78;;
77991;SDS011;67180;43.534;-5.652;2023-03-31T02:04:09;17.55;;;3.83;;
77991;SDS011;67180;43.534;-5.652;2023-03-31T02:06:41;10.02;;;2.70;;
77991;SDS011;67180;43.534;-5.652;2023-03-31T02:09:13;14.77;;;3.25;;
77991;SDS011;67180;43.534;-5.652;2023-03-31T02:11:42;13.38;;;3.63;;
77991;SDS011;67180;43.534;-5.652;2023-03-31T02:14:10;11.38;;;3.20;;
77991;SDS011;67180;43.534;-5.652;2023-03-31T02:16:39;13.30;;;3.17;;
77991;SDS011;67180;43.534;-5.652;2023-03-31T02:19:12;13.40;;;3.10;;
77991;SDS011;67180;43.534;-5.652;2023-03-31T02:21:47;11.15;;;2.75;;
77991;SDS011;67180;43.534;-5.652;2023-03-31T02:24:19;12.07;;;2.78;;
77991;SDS011;67180;43.534;-5.652;2023-03-31T02:26:54;18.15;;;2.47;;
77991;SDS011;67180;43.534;-5.652;2023-03-31T02:29:24;13.85;;;2.75;;
77991;SDS011;67180;43.534;-5.652;2023-03-31T02:31:57;11.57;;;2.80;;
77991;SDS011;67180;43.534;-5.652;2023-03-31T02:34:26;9.98;;;2.40;;
77991;SDS011;67180;43.534;-5.652;2023-03-31T02:36:52;13.15;;;2.75;;
77991;SDS011;67180;43.534;-5.652;2023-03-31T02:39:20;15.90;;;2.90;;
77991;SDS011;67180;43.534;-5.652;2023-03-31T02:41:52;15.77;;;2.33;;
77991;SDS011;67180;43.534;-5.652;2023-03-31T02:44:18;14.65;;;2.58;;
77991;SDS011;67180;43.534;-5.652;2023-03-31T02:46:51;16.98;;;3.67;;
77991;SDS011;67180;43.534;-5.652;2023-03-31T02:49:49;15.50;;;3.50;;
77991;SDS011;67180;43.534;-5.652;2023-03-31T02:52:33;19.23;;;4.05;;
77991;SDS011;67180;43.534;-5.652;2023-03-31T02:55:12;16.52;;;3.70;;
77991;SDS011;67180;43.534;-5.652;2023-03-31T03:06:04;12.70;;;3.92;;
77991;SDS011;67180;43.534;-5.652;2023-03-31T03:08:53;12.63;;;3.53;;
77991;SDS011;67180;43.534;-5.652;2023-03-31T03:11:30;18.02;;;3.90;;
77991;SDS011;67180;43.534;-5.652;2023-03-31T03:16:48;14.43;;;4.38;;
77991;SDS011;67180;43.534;-5.652;2023-03-31T03:19:20;20.35;;;4.93;;
77991;SDS011;67180;43.534;-5.652;2023-03-31T03:21:54;16.83;;;5.20;;
77991;SDS011;67180;43.534;-5.652;2023-03-31T03:24:30;18.65;;;6.22;;
77991;SDS011;67180;43.534;-5.652;2023-03-31T03:27:19;22.60;;;7.30;;
77991;SDS011;67180;43.534;-5.652;2023-03-31T03:30:02;23.08;;;7.68;;
77991;SDS011;67180;43.534;-5.652;2023-03-31T03:33:01;27.67;;;8.95;;
77991;SDS011;67180;43.534;-5.652;2023-03-31T03:35:34;32.03;;;9.02;;
77991;SDS011;67180;43.534;-5.652;2023-03-31T03:38:01;27.10;;;8.35;;
77991;SDS011;67180;43.534;-5.652;2023-03-31T03:40:40;38.88;;;8.52;;
77991;SDS011;67180;43.534;-5.652;2023-03-31T03:43:27;34.38;;;9.27;;
77991;SDS011;67180;43.534;-5.652;2023-03-31T03:45:59;35.97;;;8.48;;
77991;SDS011;67180;43.534;-5.652;2023-03-31T03:48:30;30.88;;;7.88;;
77991;SDS011;67180;43.534;-5.652;2023-03-31T03:51:02;33.95;;;8.00;;
77991;SDS011;67180;43.534;-5.652;2023-03-31T03:53:38;34.38;;;8.00;;
77991;SDS011;67180;43.534;-5.652;2023-03-31T03:56:05;34.15;;;8.00;;
77991;SDS011;67180;43.534;-5.652;2023-03-31T03:58:31;34.72;;;8.00;;
77991;SDS011;67180;43.534;-5.652;2023-03-31T04:00:59;35.97;;;7.50;;
77991;SDS011;67180;43.534;-5.652;2023-03-31T04:03:25;34.78;;;8.32;;
77991;SDS011;67180;43.534;-5.652;2023-03-31T04:05:52;37.00;;;7.68;;
77991;SDS011;67180;43.534;-5.652;2023-03-31T04:08:28;38.63;;;7.83;;
77991;SDS011;67180;43.534;-5.652;2023-03-31T04:10:56;30.58;;;7.75;;
77991;SDS011;67180;43.534;-5.652;2023-03-31T04:13:23;30.98;;;8.13;;
77991;SDS011;67180;43.534;-5.652;2023-03-31T04:15:52;27.35;;;8.35;;
77991;SDS011;67180;43.534;-5.652;2023-03-31T04:18:23;35.83;;;8.20;;
77991;SDS011;67180;43.534;-5.652;2023-03-31T04:21:01;29.47;;;7.30;;
77991;SDS011;67180;43.534;-5.652;2023-03-31T04:23:52;28.45;;;7.25;;
77991;SDS011;67180;43.534;-5.652;2023-03-31T04:26:26;15.77;;;5.30;;
77991;SDS011;67180;43.534;-5.652;2023-03-31T04:29:05;16.42;;;5.47;;
77991;SDS011;67180;43.534;-5.652;2023-03-31T04:31:58;16.70;;;5.00;;
77991;SDS011;67180;43.534;-5.652;2023-03-31T04:34:35;16.27;;;4.72;;
77991;SDS011;67180;43.534;-5.652;2023-03-31T04:37:08;15.35;;;4.93;;
77991;SDS011;67180;43.534;-5.652;2023-03-31T04:39:44;15.88;;;4.93;;
77991;SDS011;67180;43.534;-5.652;2023-03-31T04:42:23;12.75;;;4.38;;
77991;SDS011;67180;43.534;-5.652;2023-03-31T04:44:52;18.02;;;4.28;;
77991;SDS011;67180;43.534;-5.652;2023-03-31T04:47:18;17.63;;;4.97;;
77991;SDS011;67180;43.534;-5.652;2023-03-31T04:49:47;19.30;;;4.90;;
77991;SDS011;67180;43.534;-5.652;2023-03-31T04:52:17;13.57;;;4.80;;
77991;SDS011;67180;43.534;-5.652;2023-03-31T04:54:43;15.55;;;4.93;;
77991;SDS011;67180;43.534;-5.652;2023-03-31T04:57:11;13.27;;;5.07;;
77991;SDS011;67180;43.534;-5.652;2023-03-31T04:59:46;18.40;;;5.13;;
77991;SDS011;67180;43.534;-5.652;2023-03-31T05:02:16;13.02;;;5.05;;
77991;SDS011;67180;43.534;-5.652;2023-03-31T05:04:49;34.40;;;6.75;;
77991;SDS011;67180;43.534;-5.652;2023-03-31T05:07:26;26.95;;;6.28;;
77991;SDS011;67180;43.534;-5.652;2023-03-31T05:10:27;22.45;;;5.18;;
77991;SDS011;67180;43.534;-5.652;2023-03-31T05:12:53;21.35;;;4.70;;
77991;SDS011;67180;43.534;-5.652;2023-03-31T05:15:20;20.27;;;5.03;;
77991;SDS011;67180;43.534;-5.652;2023-03-31T05:17:56;19.55;;;5.07;;
77991;SDS011;67180;43.534;-5.652;2023-03-31T05:20:26;21.90;;;5.28;;
77991;SDS011;67180;43.534;-5.652;2023-03-31T05:23:12;14.75;;;5.13;;
77991;SDS011;67180;43.534;-5.652;2023-03-31T05:25:39;17.35;;;4.72;;
77991;SDS011;67180;43.534;-5.652;2023-03-31T05:28:07;16.30;;;4.40;;
77991;SDS011;67180;43.534;-5.652;2023-03-31T05:33:25;17.17;;;4.85;;
77991;SDS011;67180;43.534;-5.652;2023-03-31T05:35:52;16.45;;;5.15;;
77991;SDS011;67180;43.534;-5.652;2023-03-31T05:38:18;20.60;;;5.70;;
77991;SDS011;67180;43.534;-5.652;2023-03-31T05:40:47;18.88;;;5.38;;
77991;SDS011;67180;43.534;-5.652;2023-03-31T05:43:17;19.38;;;5.25;;
77991;SDS011;67180;43.534;-5.652;2023-03-31T05:45:43;23.45;;;5.45;;
77991;SDS011;67180;43.534;-5.652;2023-03-31T05:48:13;17.23;;;4.88;;
77991;SDS011;67180;43.534;-5.652;2023-03-31T05:50:49;15.60;;;4.80;;
77991;SDS011;67180;43.534;-5.652;2023-03-31T05:53:16;18.00;;;5.65;;
77991;SDS011;67180;43.534;-5.652;2023-03-31T05:55:42;24.45;;;5.28;;
77991;SDS011;67180;43.534;-5.652;2023-03-31T05:58:09;19.08;;;5.25;;
77991;SDS011;67180;43.534;-5.652;2023-03-31T06:00:35;17.67;;;5.05;;
77991;SDS011;67180;43.534;-5.652;2023-03-31T06:03:02;14.00;;;4.80;;
77991;SDS011;67180;43.534;-5.652;2023-03-31T06:05:28;24.58;;;5.70;;
77991;SDS011;67180;43.534;-5.652;2023-03-31T06:07:56;22.42;;;5.85;;
77991;SDS011;67180;43.534;-5.652;2023-03-31T06:10:23;16.88;;;6.00;;
77991;SDS011;67180;43.534;-5.652;2023-03-31T06:12:49;16.67;;;6.68;;
77991;SDS011;67180;43.534;-5.652;2023-03-31T06:15:15;23.10;;;6.22;;
77991;SDS011;67180;43.534;-5.652;2023-03-31T06:17:42;19.10;;;6.43;;
77991;SDS011;67180;43.534;-5.652;2023-03-31T06:20:08;21.10;;;7.03;;
77991;SDS011;67180;43.534;-5.652;2023-03-31T06:22:34;15.23;;;6.72;;
77991;SDS011;67180;43.534;-5.652;2023-03-31T06:25:00;18.67;;;6.65;;
77991;SDS011;67180;43.534;-5.652;2023-03-31T06:27:27;17.38;;;6.32;;
77991;SDS011;67180;43.534;-5.652;2023-03-31T06:29:53;22.67;;;6.75;;
77991;SDS011;67180;43.534;-5.652;2023-03-31T06:32:20;21.25;;;7.20;;
77991;SDS011;67180;43.534;-5.652;2023-03-31T06:34:46;20.83;;;6.63;;
77991;SDS011;67180;43.534;-5.652;2023-03-31T06:37:12;26.20;;;7.10;;
77991;SDS011;67180;43.534;-5.652;2023-03-31T06:39:38;20.95;;;7.25;;
77991;SDS011;67180;43.534;-5.652;2023-03-31T06:42:04;24.05;;;7.38;;
77991;SDS011;67180;43.534;-5.652;2023-03-31T06:44:31;26.48;;;7.10;;
77991;SDS011;67180;43.534;-5.652;2023-03-31T06:46:57;30.00;;;7.65;;
77991;SDS011;67180;43.534;-5.652;2023-03-31T06:49:23;26.38;;;7.07;;
77991;SDS011;67180;43.534;-5.652;2023-03-31T06:51:49;22.15;;;7.50;;
77991;SDS011;67180;43.534;-5.652;2023-03-31T06:54:16;25.40;;;8.15;;
77991;SDS011;67180;43.534;-5.652;2023-03-31T06:56:42;26.85;;;8.07;;
77991;SDS011;67180;43.534;-5.652;2023-03-31T06:59:08;22.42;;;7.70;;
77991;SDS011;67180;43.534;-5.652;2023-03-31T07:01:35;24.80;;;8.02;;
77991;SDS011;67180;43.534;-5.652;2023-03-31T07:04:03;27.23;;;7.40;;
77991;SDS011;67180;43.534;-5.652;2023-03-31T07:06:29;19.80;;;7.22;;
77991;SDS011;67180;43.534;-5.652;2023-03-31T07:08:55;24.83;;;7.95;;
77991;SDS011;67180;43.534;-5.652;2023-03-31T07:11:30;21.55;;;7.55;;
77991;SDS011;67180;43.534;-5.652;2023-03-31T07:13:56;27.50;;;7.47;;
77991;SDS011;67180;43.534;-5.652;2023-03-31T07:16:23;27.05;;;7.70;;
77991;SDS011;67180;43.534;-5.652;2023-03-31T07:18:49;21.92;;;6.60;;
77991;SDS011;67180;43.534;-5.652;2023-03-31T07:21:18;26.98;;;7.28;;
77991;SDS011;67180;43.534;-5.652;2023-03-31T07:23:45;23.35;;;7.53;;
77991;SDS011;67180;43.534;-5.652;2023-03-31T07:26:11;29.30;;;7.35;;
77991;SDS011;67180;43.534;-5.652;2023-03-31T07:28:38;22.50;;;6.45;;
77991;SDS011;67180;43.534;-5.652;2023-03-31T07:31:09;22.98;;;7.32;;
77991;SDS011;67180;43.534;-5.652;2023-03-31T07:33:35;17.92;;;6.70;;
77991;SDS011;67180;43.534;-5.652;2023-03-31T07:36:03;20.20;;;6.80;;
77991;SDS011;67180;43.534;-5.652;2023-03-31T07:38:30;19.05;;;6.95;;
77991;SDS011;67180;43.534;-5.652;2023-03-31T07:40:56;21.33;;;7.03;;
77991;SDS011;67180;43.534;-5.652;2023-03-31T07:43:22;20.08;;;7.28;;
77991;SDS011;67180;43.534;-5.652;2023-03-31T07:45:48;20.25;;;7.70;;
77991;SDS011;67180;43.534;-5.652;2023-03-31T07:48:14;19.42;;;7.00;;
77991;SDS011;67180;43.534;-5.652;2023-03-31T07:50:40;20.83;;;7.07;;
77991;SDS011;67180;43.534;-5.652;2023-03-31T07:53:07;22.13;;;6.82;;
77991;SDS011;67180;43.534;-5.652;2023-03-31T07:55:33;18.02;;;6.78;;
77991;SDS011;67180;43.534;-5.652;2023-03-31T07:57:59;18.85;;;5.97;;
77991;SDS011;67180;43.534;-5.652;2023-03-31T08:00:25;29.17;;;7.15;;
77991;SDS011;67180;43.534;-5.652;2023-03-31T08:02:52;21.58;;;7.00;;
77991;SDS011;67180;43.534;-5.652;2023-03-31T08:05:19;22.65;;;6.80;;
77991;SDS011;67180;43.534;-5.652;2023-03-31T08:07:46;21.50;;;6.95;;
77991;SDS011;67180;43.534;-5.652;2023-03-31T08:10:15;18.90;;;6.93;;
77991;SDS011;67180;43.534;-5.652;2023-03-31T08:12:44;19.50;;;7.30;;
77991;SDS011;67180;43.534;-5.652;2023-03-31T08:15:10;21.92;;;6.65;;
77991;SDS011;67180;43.534;-5.652;2023-03-31T08:17:39;19.88;;;6.22;;
77991;SDS011;67180;43.534;-5.652;2023-03-31T08:20:06;19.88;;;6.45;;
77991;SDS011;67180;43.534;-5.652;2023-03-31T08:22:34;24.95;;;6.38;;
77991;SDS011;67180;43.534;-5.652;2023-03-31T08:25:00;16.13;;;5.93;;
77991;SDS011;67180;43.534;-5.652;2023-03-31T08:27:27;17.65;;;5.90;;
77991;SDS011;67180;43.534;-5.652;2023-03-31T08:29:53;19.27;;;6.88;;
77991;SDS011;67180;43.534;-5.652;2023-03-31T08:32:22;17.80;;;6.60;;
77991;SDS011;67180;43.534;-5.652;2023-03-31T08:34:48;15.57;;;6.70;;
77991;SDS011;67180;43.534;-5.652;2023-03-31T08:37:15;17.48;;;6.82;;
77991;SDS011;67180;43.534;-5.652;2023-03-31T08:39:41;26.95;;;7.43;;
77991;SDS011;67180;43.534;-5.652;2023-03-31T08:42:16;19.42;;;8.18;;
77991;SDS011;67180;43.534;-5.652;2023-03-31T08:44:52;23.55;;;8.38;;
77991;SDS011;67180;43.534;-5.652;2023-03-31T08:47:21;19.55;;;7.80;;
77991;SDS011;67180;43.534;-5.652;2023-03-31T08:49:51;20.60;;;8.10;;
77991;SDS011;67180;43.534;-5.652;2023-03-31T08:52:20;24.63;;;9.57;;
77991;SDS011;67180;43.534;-5.652;2023-03-31T08:54:48;24.98;;;9.88;;
77991;SDS011;67180;43.534;-5.652;2023-03-31T08:57:19;26.05;;;9.52;;
77991;SDS011;67180;43.534;-5.652;2023-03-31T08:59:46;19.77;;;9.20;;
77991;SDS011;67180;43.534;-5.652;2023-03-31T09:05:02;26.88;;;10.70;;
77991;SDS011;67180;43.534;-5.652;2023-03-31T09:07:39;21.05;;;9.95;;
77991;SDS011;67180;43.534;-5.652;2023-03-31T09:10:17;27.70;;;9.98;;
77991;SDS011;67180;43.534;-5.652;2023-03-31T09:12:49;22.58;;;10.35;;
77991;SDS011;67180;43.534;-5.652;2023-03-31T09:15:26;22.20;;;9.75;;
77991;SDS011;67180;43.534;-5.652;2023-03-31T09:17:54;24.90;;;10.45;;
77991;SDS011;67180;43.534;-5.652;2023-03-31T09:20:25;30.67;;;11.73;;
77991;SDS011;67180;43.534;-5.652;2023-03-31T09:25:22;23.27;;;9.88;;
77991;SDS011;67180;43.534;-5.652;2023-03-31T09:27:51;23.90;;;9.93;;
77991;SDS011;67180;43.534;-5.652;2023-03-31T09:30:20;24.65;;;9.50;;
77991;SDS011;67180;43.534;-5.652;2023-03-31T09:32:52;20.50;;;9.45;;
77991;SDS011;67180;43.534;-5.652;2023-03-31T09:35:20;22.38;;;9.73;;
77991;SDS011;67180;43.534;-5.652;2023-03-31T09:37:48;23.25;;;10.82;;
77991;SDS011;67180;43.534;-5.652;2023-03-31T09:40:16;32.47;;;12.70;;
77991;SDS011;67180;43.534;-5.652;2023-03-31T09:42:42;34.70;;;13.65;;
77991;SDS011;67180;43.534;-5.652;2023-03-31T09:45:13;33.67;;;11.50;;
77991;SDS011;67180;43.534;-5.652;2023-03-31T09:47:41;32.67;;;11.00;;
77991;SDS011;67180;43.534;-5.652;2023-03-31T09:50:08;30.00;;;10.20;;
77991;SDS011;67180;43.534;-5.652;2023-03-31T09:52:37;26.63;;;9.57;;
77991;SDS011;67180;43.534;-5.652;2023-03-31T09:55:14;30.38;;;9.20;;
77991;SDS011;67180;43.534;-5.652;2023-03-31T09:57:41;30.83;;;9.75;;
77991;SDS011;67180;43.534;-5.652;2023-03-31T10:00:14;37.05;;;9.57;;
77991;SDS011;67180;43.534;-5.652;2023-03-31T10:02:54;31.75;;;9.75;;
77991;SDS011;67180;43.534;-5.652;2023-03-31T10:05:26;30.30;;;9.88;;
77991;SDS011;67180;43.534;-5.652;2023-03-31T10:08:12;31.15;;;10.18;;
77991;SDS011;67180;43.534;-5.652;2023-03-31T10:10:42;33.47;;;10.50;;
77991;SDS011;67180;43.534;-5.652;2023-03-31T10:13:09;34.83;;;10.30;;
77991;SDS011;67180;43.534;-5.652;2023-03-31T10:15:36;31.80;;;10.43;;
77991;SDS011;67180;43.534;-5.652;2023-03-31T10:18:03;27.85;;;10.55;;
77991;SDS011;67180;43.534;-5.652;2023-03-31T10:20:30;35.08;;;11.35;;
77991;SDS011;67180;43.534;-5.652;2023-03-31T10:23:01;32.58;;;11.10;;
77991;SDS011;67180;43.534;-5.652;2023-03-31T10:25:29;38.33;;;10.68;;
77991;SDS011;67180;43.534;-5.652;2023-03-31T10:27:57;39.63;;;13.48;;
77991;SDS011;67180;43.534;-5.652;2023-03-31T10:30:28;42.22;;;18.30;;
77991;SDS011;67180;43.534;-5.652;2023-03-31T10:32:56;49.33;;;24.52;;
77991;SDS011;67180;43.534;-5.652;2023-03-31T10:35:25;49.97;;;25.88;;
77991;SDS011;67180;43.534;-5.652;2023-03-31T10:37:56;49.63;;;26.95;;
77991;SDS011;67180;43.534;-5.652;2023-03-31T10:40:24;57.63;;;27.02;;
77991;SDS011;67180;43.534;-5.652;2023-03-31T10:43:11;50.25;;;26.60;;
77991;SDS011;67180;43.534;-5.652;2023-03-31T10:45:37;17.70;;;7.95;;
77991;SDS011;67180;43.534;-5.652;2023-03-31T10:48:08;17.00;;;6.07;;
77991;SDS011;67180;43.534;-5.652;2023-03-31T10:50:42;19.85;;;4.50;;
77991;SDS011;67180;43.534;-5.652;2023-03-31T10:53:11;18.65;;;4.20;;
77991;SDS011;67180;43.534;-5.652;2023-03-31T10:55:40;19.00;;;4.22;;
77991;SDS011;67180;43.534;-5.652;2023-03-31T10:58:20;19.90;;;4.30;;
77991;SDS011;67180;43.534;-5.652;2023-03-31T11:03:37;16.27;;;4.63;;
77991;SDS011;67180;43.534;-5.652;2023-03-31T11:06:09;17.45;;;4.72;;
77991;SDS011;67180;43.534;-5.652;2023-03-31T11:11:25;20.77;;;5.45;;
77991;SDS011;67180;43.534;-5.652;2023-03-31T11:13:56;24.25;;;5.55;;
77991;SDS011;67180;43.534;-5.652;2023-03-31T11:16:28;24.10;;;6.57;;
77991;SDS011;67180;43.534;-5.652;2023-03-31T11:19:12;42.47;;;8.02;;
77991;SDS011;67180;43.534;-5.652;2023-03-31T11:21:44;22.83;;;6.72;;
77991;SDS011;67180;43.534;-5.652;2023-03-31T11:24:17;20.73;;;6.93;;
77991;SDS011;67180;43.534;-5.652;2023-03-31T11:26:51;21.73;;;6.72;;
77991;SDS011;67180;43.534;-5.652;2023-03-31T11:29:24;22.85;;;7.32;;
77991;SDS011;67180;43.534;-5.652;2023-03-31T11:32:05;20.13;;;7.13;;
77991;SDS011;67180;43.534;-5.652;2023-03-31T11:34:47;28.13;;;9.73;;
77991;SDS011;67180;43.534;-5.652;2023-03-31T11:37:20;23.98;;;9.93;;
77991;SDS011;67180;43.534;-5.652;2023-03-31T11:42:34;33.53;;;13.00;;
77991;SDS011;67180;43.534;-5.652;2023-03-31T11:45:03;32.53;;;14.20;;
77991;SDS011;67180;43.534;-5.652;2023-03-31T11:47:32;41.83;;;13.82;;
77991;SDS011;67180;43.534;-5.652;2023-03-31T11:50:03;37.55;;;14.13;;
77991;SDS011;67180;43.534;-5.652;2023-03-31T11:52:31;31.85;;;11.13;;
77991;SDS011;67180;43.534;-5.652;2023-03-31T11:54:59;31.75;;;12.93;;
77991;SDS011;67180;43.534;-5.652;2023-03-31T11:57:32;43.22;;;11.25;;
77991;SDS011;67180;43.534;-5.652;2023-03-31T12:00:04;31.52;;;10.90;;
77991;SDS011;67180;43.534;-5.652;2023-03-31T12:02:42;28.85;;;13.93;;
77991;SDS011;67180;43.534;-5.652;2023-03-31T12:05:10;31.55;;;11.70;;
77991;SDS011;67180;43.534;-5.652;2023-03-31T12:07:38;32.53;;;12.07;;
77991;SDS011;67180;43.534;-5.652;2023-03-31T12:10:19;34.53;;;10.55;;
77991;SDS011;67180;43.534;-5.652;2023-03-31T12:12:53;24.10;;;7.82;;
77991;SDS011;67180;43.534;-5.652;2023-03-31T12:15:24;23.15;;;6.68;;
77991;SDS011;67180;43.534;-5.652;2023-03-31T12:17:54;27.45;;;6.15;;
77991;SDS011;67180;43.534;-5.652;2023-03-31T12:20:24;21.17;;;5.10;;
77991;SDS011;67180;43.534;-5.652;2023-03-31T12:22:53;22.35;;;4.45;;
77991;SDS011;67180;43.534;-5.652;2023-03-31T12:25:20;19.80;;;4.20;;
77991;SDS011;67180;43.534;-5.652;2023-03-31T12:27:47;21.08;;;4.70;;
77991;SDS011;67180;43.534;-5.652;2023-03-31T12:30:18;21.90;;;3.83;;
77991;SDS011;67180;43.534;-5.652;2023-03-31T12:32:46;17.00;;;4.10;;
77991;SDS011;67180;43.534;-5.652;2023-03-31T12:35:23;19.75;;;4.72;;
77991;SDS011;67180;43.534;-5.652;2023-03-31T12:38:06;26.65;;;5.00;;
77991;SDS011;67180;43.534;-5.652;2023-03-31T12:40:45;26.52;;;5.38;;
77991;SDS011;67180;43.534;-5.652;2023-03-31T12:51:16;17.10;;;5.35;;
77991;SDS011;67180;43.534;-5.652;2023-03-31T12:53:57;20.85;;;5.63;;
77991;SDS011;67180;43.534;-5.652;2023-03-31T12:59:16;18.45;;;6.28;;
77991;SDS011;67180;43.534;-5.652;2023-03-31T13:02:16;26.65;;;5.50;;
77991;SDS011;67180;43.534;-5.652;2023-03-31T13:04:29;16.52;;;4.50;;
77991;SDS011;67180;43.534;-5.652;2023-03-31T13:06:56;12.52;;;3.33;;
77991;SDS011;67180;43.534;-5.652;2023-03-31T13:14:52;22.10;;;4.70;;
77991;SDS011;67180;43.534;-5.652;2023-03-31T13:17:22;26.73;;;4.45;;
77991;SDS011;67180;43.534;-5.652;2023-03-31T13:19:49;25.20;;;4.57;;
77991;SDS011;67180;43.534;-5.652;2023-03-31T13:22:32;12.55;;;3.63;;
77991;SDS011;67180;43.534;-5.652;2023-03-31T13:27:45;16.98;;;4.18;;
77991;SDS011;67180;43.534;-5.652;2023-03-31T13:33:03;20.85;;;4.50;;
77991;SDS011;67180;43.534;-5.652;2023-03-31T13:35:30;19.05;;;4.57;;
77991;SDS011;67180;43.534;-5.652;2023-03-31T13:40:50;38.65;;;5.40;;
77991;SDS011;67180;43.534;-5.652;2023-03-31T13:48:38;22.88;;;4.32;;
77991;SDS011;67180;43.534;-5.652;2023-03-31T13:53:56;26.33;;;4.88;;
77991;SDS011;67180;43.534;-5.652;2023-03-31T13:59:18;21.63;;;4.85;;
77991;SDS011;67180;43.534;-5.652;2023-03-31T14:06:57;20.25;;;5.38;;
77991;SDS011;67180;43.534;-5.652;2023-03-31T14:09:32;24.50;;;5.55;;
77991;SDS011;67180;43.534;-5.652;2023-03-31T14:11:59;21.27;;;5.68;;
77991;SDS011;67180;43.534;-5.652;2023-03-31T14:14:25;27.00;;;6.15;;
77991;SDS011;67180;43.534;-5.652;2023-03-31T14:16:55;21.15;;;6.00;;
77991;SDS011;67180;43.534;-5.652;2023-03-31T14:22:15;27.23;;;5.68;;
77991;SDS011;67180;43.534;-5.652;2023-03-31T14:25:05;22.90;;;6.20;;
77991;SDS011;67180;43.534;-5.652;2023-03-31T14:33:01;23.70;;;5.57;;
77991;SDS011;67180;43.534;-5.652;2023-03-31T14:35:32;24.98;;;6.50;;
77991;SDS011;67180;43.534;-5.652;2023-03-31T14:38:03;25.25;;;5.15;;
77991;SDS011;67180;43.534;-5.652;2023-03-31T14:40:30;24.95;;;5.68;;
77991;SDS011;67180;43.534;-5.652;2023-03-31T14:42:57;24.70;;;5.80;;
77991;SDS011;67180;43.534;-5.652;2023-03-31T14:45:24;32.10;;;5.95;;
77991;SDS011;67180;43.534;-5.652;2023-03-31T14:47:57;30.02;;;5.72;;
77991;SDS011;67180;43.534;-5.652;2023-03-31T14:50:29;23.92;;;5.53;;
77991;SDS011;67180;43.534;-5.652;2023-03-31T14:52:56;22.38;;;5.25;;
77991;SDS011;67180;43.534;-5.652;2023-03-31T14:55:25;28.25;;;5.63;;
77991;SDS011;67180;43.534;-5.652;2023-03-31T14:57:52;24.40;;;5.65;;
77991;SDS011;67180;43.534;-5.652;2023-03-31T15:00:23;26.50;;;5.82;;
77991;SDS011;67180;43.534;-5.652;2023-03-31T15:02:51;26.35;;;5.80;;
77991;SDS011;67180;43.534;-5.652;2023-03-31T15:05:20;19.92;;;5.53;;
77991;SDS011;67180;43.534;-5.652;2023-03-31T15:07:47;24.73;;;5.53;;
77991;SDS011;67180;43.534;-5.652;2023-03-31T15:10:15;26.80;;;6.00;;
77991;SDS011;67180;43.534;-5.652;2023-03-31T15:12:43;27.73;;;6.03;;
77991;SDS011;67180;43.534;-5.652;2023-03-31T15:15:09;23.35;;;4.93;;
77991;SDS011;67180;43.534;-5.652;2023-03-31T15:17:39;27.52;;;5.60;;
77991;SDS011;67180;43.534;-5.652;2023-03-31T15:22:53;25.70;;;4.57;;
77991;SDS011;67180;43.534;-5.652;2023-03-31T15:25:20;20.92;;;5.55;;
77991;SDS011;67180;43.534;-5.652;2023-03-31T15:27:48;25.15;;;5.65;;
77991;SDS011;67180;43.534;-5.652;2023-03-31T15:30:16;20.25;;;5.40;;
77991;SDS011;67180;43.534;-5.652;2023-03-31T15:32:43;28.15;;;5.57;;
77991;SDS011;67180;43.534;-5.652;2023-03-31T15:35:17;26.58;;;6.00;;
77991;SDS011;67180;43.534;-5.652;2023-03-31T15:37:45;23.23;;;5.55;;
77991;SDS011;67180;43.534;-5.652;2023-03-31T15:40:17;26.80;;;6.25;;
77991;SDS011;67180;43.534;-5.652;2023-03-31T15:42:44;30.95;;;6.38;;
77991;SDS011;67180;43.534;-5.652;2023-03-31T15:45:23;24.02;;;6.35;;
77991;SDS011;67180;43.534;-5.652;2023-03-31T15:47:57;39.75;;;7.05;;
77991;SDS011;67180;43.534;-5.652;2023-03-31T15:50:26;29.20;;;6.72;;
77991;SDS011;67180;43.534;-5.652;2023-03-31T15:52:54;28.45;;;6.40;;
77991;SDS011;67180;43.534;-5.652;2023-03-31T15:55:25;28.55;;;6.18;;
77991;SDS011;67180;43.534;-5.652;2023-03-31T15:57:53;29.80;;;6.07;;
77991;SDS011;67180;43.534;-5.652;2023-03-31T16:03:01;33.72;;;6.20;;
77991;SDS011;67180;43.534;-5.652;2023-03-31T16:05:39;31.17;;;5.78;;
77991;SDS011;67180;43.534;-5.652;2023-03-31T16:08:09;37.72;;;7.10;;
77991;SDS011;67180;43.534;-5.652;2023-03-31T16:10:38;33.42;;;6.05;;
77991;SDS011;67180;43.534;-5.652;2023-03-31T16:13:05;24.17;;;5.13;;
77991;SDS011;67180;43.534;-5.652;2023-03-31T16:15:34;22.27;;;5.68;;
77991;SDS011;67180;43.534;-5.652;2023-03-31T16:18:02;32.92;;;6.68;;
77991;SDS011;67180;43.534;-5.652;2023-03-31T16:20:30;30.05;;;5.43;;
77991;SDS011;67180;43.534;-5.652;2023-03-31T16:23:01;24.10;;;5.70;;